Airfield :
LOGIN :

Register | Disclaimer

   EN    FR    IT 

 










Legend :    VFR   Marginal VFR   IFR   Intensive IFR   Very Intensive IFR
Visi :
Ceiling :
>= 8 km
>= 3000ft
5 to 8 km
1000 to 3000 ft
1500m to 5 km
500 to 1000 ft
800 to 1500m
200 to 500 ft
< 800m
< 200 ft
Symbols :   Thunderstorms  Fog  Heavy snow  Heavy precipitations  Wind > 20 kt
SIGMETs :     Misc.  Thunderstorms  Icing  Turbulence  Mountain Waves  Volcanic Ashes







- Airport Elevation : 353 ft
- IATA code : ZAG


LDZA - Zagreb Pleso

CURRENT METAR :
  • 210500Z 27001KT CAVOK M00/M02 Q1027 NOSIG

EXPIRED METARs :
  • 210430Z 26002KT CAVOK M00/M01 Q1027 NOSIG
  • 210400Z 24002KT CAVOK M00/M01 Q1027 NOSIG
  • 210330Z 00000KT CAVOK 00/M01 Q1027 NOSIG
  • 210300Z 00000KT CAVOK 01/M01 Q1027 NOSIG
  • 210230Z 00000KT CAVOK 01/M01 Q1027 NOSIG

TAF TAF LDZA
Valid from the 21 at 00:00 until the 22 at 00:00 UTC


202325Z 2100/2200 VRB02KT CAVOK TX15/2114Z TN00/2106Z
PROB30 2105/2108 4000 MIFG BR
ATIS : +385 1 6-259-214
No reported NOTAMs for that airfield.



MET'MAP, your aeronautical weather chart ! - Copyright ORBIFLY December 2007 - Disclaimer

ORBIFLY MET'MAP TEAM :

Programming & Development : Alexandra Zaïnal
Concept & Development : Baudouin d'Aumeries
Co-Development & Prog : Marc-Olivier Méhu
Technical & hardware support : Manuel Goepfert

Contact : metmap@orbifly.com




SOURCES & CREDITS :

   NOAA